createdAt,value
2023-03-29T18:37:46.124Z,22.5845
2023-03-29T18:38:47.948Z,22.6396
2023-03-29T18:39:49.582Z,22.6838
2023-03-29T18:40:51.333Z,22.7496
2023-03-29T18:41:53.020Z,22.8473
2023-03-29T18:42:54.761Z,22.9673
2023-03-29T18:43:56.402Z,23.0704
2023-03-29T18:44:58.162Z,23.2477
2023-03-29T18:45:59.945Z,23.4935
2023-03-29T18:47:01.702Z,23.6215
2023-03-29T18:48:03.352Z,23.7338
2023-03-29T18:49:05.066Z,23.8473
2023-03-29T18:50:06.717Z,23.9431
2023-03-29T18:51:08.522Z,24.0619
2023-03-29T18:52:10.130Z,24.1338
2023-03-29T18:53:11.875Z,24.1946
2023-03-29T18:54:13.590Z,24.2858
2023-03-29T18:55:15.297Z,24.3812
2023-03-29T18:56:17.024Z,24.4423
2023-03-29T18:57:18.840Z,24.5123
2023-03-29T18:58:20.453Z,24.5888
2023-03-29T18:59:22.161Z,24.6546
2023-03-29T19:00:23.867Z,24.7296
2023-03-29T19:01:25.722Z,24.7919
2023-03-29T19:02:27.350Z,24.8450
2023-03-29T19:03:29.212Z,24.9219
2023-03-29T19:18:48.734Z,25.4591
2023-03-29T19:19:50.500Z,25.4558
2023-03-29T19:20:52.205Z,25.4415
2023-03-29T19:21:53.918Z,25.4562
2023-03-29T19:22:55.639Z,25.4842
2023-03-29T19:23:57.386Z,25.5231
2023-03-29T19:24:59.045Z,25.4719
2023-03-29T19:26:00.855Z,25.4138
2023-03-29T19:27:02.532Z,25.3804
2023-03-29T19:28:04.258Z,25.3423
2023-03-29T19:29:05.931Z,25.3177
2023-03-29T19:30:07.676Z,25.3250
2023-03-29T19:31:09.382Z,25.3942
2023-03-29T19:32:11.123Z,25.4246
2023-03-29T19:33:12.857Z,25.4992
2023-03-29T19:34:14.510Z,25.5769
2023-03-29T19:35:16.203Z,25.6227
2023-03-29T19:36:17.979Z,25.6500
2023-03-29T19:37:19.692Z,25.6908
2023-03-29T19:38:21.393Z,25.7023
2023-03-29T19:39:23.173Z,25.7296
2023-03-29T19:40:24.789Z,25.7704
2023-03-29T19:41:26.509Z,25.8077
2023-03-29T19:42:28.235Z,25.8196
2023-03-29T19:43:29.953Z,25.8304
2023-03-29T19:44:31.653Z,25.8577
